createdAt,value
2018-06-04T00:02:18.736Z,68.25
2018-06-04T00:04:47.365Z,68.47
2018-06-04T00:07:15.477Z,68.34
2018-06-04T00:09:43.548Z,68.27
2018-06-04T00:12:18.301Z,68.56
2018-06-04T00:14:46.495Z,68.38
2018-06-04T00:17:14.734Z,69.15
2018-06-04T00:19:42.827Z,69.67
2018-06-04T00:22:10.919Z,69.91
2018-06-04T00:24:39.010Z,70.08
2018-06-04T00:27:07.110Z,70.54
2018-06-04T00:29:35.434Z,70.34
2018-06-04T00:32:04.504Z,69.99
2018-06-04T00:34:32.592Z,70.47
2018-06-04T00:37:00.703Z,70.71
2018-06-04T00:39:28.784Z,70.90
2018-06-04T00:41:56.867Z,70.33
2018-06-04T00:44:24.945Z,70.58
2018-06-04T00:46:53.042Z,70.64
2018-06-04T00:49:21.155Z,70.96
2018-06-04T00:51:49.237Z,70.88
2018-06-04T00:54:17.320Z,71.51
2018-06-04T00:56:45.396Z,70.99
2018-06-04T00:59:13.500Z,71.38
2018-06-04T01:01:41.622Z,70.93
2018-06-04T01:04:09.697Z,71.06
2018-06-04T01:06:37.778Z,71.62
2018-06-04T01:09:08.367Z,71.49
2018-06-04T01:11:36.475Z,71.94
2018-06-04T01:14:04.580Z,71.80
2018-06-04T01:16:32.680Z,72.23
2018-06-04T01:19:00.772Z,72.75
2018-06-04T01:21:28.870Z,72.22
2018-06-04T01:23:56.942Z,72.68
2018-06-04T01:26:25.030Z,72.38
2018-06-04T01:28:53.515Z,72.20
2018-06-04T01:31:21.580Z,72.16
2018-06-04T01:33:49.631Z,73.27
2018-06-04T01:36:17.707Z,73.25
2018-06-04T01:38:45.825Z,72.80
2018-06-04T01:41:13.913Z,72.42
2018-06-04T01:43:42.015Z,72.54
2018-06-04T01:46:10.100Z,73.91
2018-06-04T01:48:38.214Z,73.57
2018-06-04T01:51:06.343Z,73.07
2018-06-04T01:53:34.436Z,73.05
2018-06-04T01:56:02.515Z,73.24
2018-06-04T01:58:30.567Z,73.50
2018-06-04T02:00:58.657Z,74.27
2018-06-04T02:03:26.712Z,73.34
2018-06-04T02:05:54.801Z,73.88
2018-06-04T02:08:22.877Z,73.49
2018-06-04T02:10:50.986Z,73.69
2018-06-04T02:13:19.019Z,74.24
2018-06-04T02:15:47.082Z,74.02
2018-06-04T02:18:15.200Z,74.55
2018-06-04T02:20:43.303Z,74.00
2018-06-04T02:23:11.396Z,74.48
2018-06-04T02:25:39.497Z,73.84
2018-06-04T02:28:07.604Z,74.59
2018-06-04T02:30:42.259Z,74.31
2018-06-04T02:33:10.332Z,74.84
2018-06-04T02:35:38.390Z,74.87
2018-06-04T02:38:06.474Z,75.30
2018-06-04T02:40:34.588Z,75.23
2018-06-04T02:43:02.757Z,75.07
2018-06-04T02:45:30.856Z,74.93
2018-06-04T02:47:58.935Z,74.96
2018-06-04T02:50:27.032Z,75.67
2018-06-04T02:52:55.132Z,75.13
2018-06-04T02:55:23.263Z,75.68
2018-06-04T02:57:51.335Z,76.13
2018-06-04T03:00:19.399Z,76.22
2018-06-04T03:02:47.472Z,76.25
2018-06-04T03:05:15.536Z,76.13
2018-06-04T03:07:43.672Z,76.07
2018-06-04T03:10:11.748Z,76.12
2018-06-04T03:12:39.847Z,75.85
2018-06-04T03:15:08.230Z,76.41
2018-06-04T03:17:36.292Z,76.45
2018-06-04T03:20:04.365Z,76.65
2018-06-04T03:22:32.438Z,75.42
2018-06-04T03:25:00.529Z,76.38
2018-06-04T03:27:28.595Z,75.11
2018-06-04T03:29:56.679Z,75.87
2018-06-04T03:32:24.805Z,76.33
2018-06-04T03:34:52.981Z,75.73
2018-06-04T03:37:21.024Z,76.04
2018-06-04T03:39:49.089Z,75.95
2018-06-04T03:42:17.160Z,75.50
2018-06-04T03:44:45.253Z,76.31
2018-06-04T03:47:13.340Z,76.32
2018-06-04T03:49:41.433Z,76.27
2018-06-04T03:52:09.524Z,75.19
2018-06-04T03:54:37.607Z,75.04
2018-06-04T03:57:05.706Z,75.36
2018-06-04T03:59:33.792Z,75.38
2018-06-04T04:02:01.865Z,75.92
2018-06-04T04:04:29.947Z,75.50
2018-06-04T04:06:58.055Z,75.61
2018-06-04T04:09:26.126Z,75.17
2018-06-04T04:11:54.228Z,75.24
2018-06-04T04:14:22.332Z,75.87
2018-06-04T04:19:24.954Z,75.53
2018-06-04T04:21:53.056Z,75.04
2018-06-04T04:24:21.111Z,75.10
2018-06-04T04:26:49.217Z,75.76
2018-06-04T04:29:17.311Z,74.72
2018-06-04T04:31:45.377Z,75.09
2018-06-04T04:34:13.470Z,75.16
2018-06-04T04:36:41.514Z,75.21
2018-06-04T04:39:09.608Z,75.43
2018-06-04T04:41:37.767Z,74.81
2018-06-04T04:44:05.895Z,75.13
2018-06-04T04:46:33.989Z,74.74
2018-06-04T04:49:02.082Z,74.50
2018-06-04T04:51:30.174Z,74.62
2018-06-04T04:53:58.338Z,74.01
2018-06-04T04:56:26.470Z,73.71
2018-06-04T04:58:54.614Z,73.58
2018-06-04T05:01:22.741Z,74.13
2018-06-04T05:03:50.889Z,73.79
2018-06-04T05:06:19.155Z,73.83
2018-06-04T05:08:47.259Z,73.31
2018-06-04T05:11:15.365Z,73.21
2018-06-04T05:13:43.509Z,72.76
2018-06-04T05:16:11.684Z,72.67
2018-06-04T05:18:39.792Z,72.29
2018-06-04T05:21:07.872Z,72.58
2018-06-04T05:23:35.970Z,71.86
2018-06-04T05:26:04.077Z,71.92
2018-06-04T05:28:32.160Z,72.02
2018-06-04T05:31:00.352Z,72.16
2018-06-04T05:33:28.428Z,71.30
2018-06-04T05:35:56.492Z,70.77
2018-06-04T05:38:24.582Z,70.94
2018-06-04T05:40:52.715Z,71.19
2018-06-04T05:43:20.832Z,70.87
2018-06-04T05:45:48.974Z,69.93
2018-06-04T05:48:17.071Z,70.00
2018-06-04T05:50:45.147Z,69.82
2018-06-04T05:53:13.223Z,68.41
2018-06-04T05:55:41.302Z,68.78
2018-06-04T05:58:09.425Z,68.42
2018-06-04T06:00:37.510Z,68.42
2018-06-04T06:03:05.606Z,67.97
2018-06-04T06:05:33.768Z,66.69
2018-06-04T06:08:01.869Z,66.96
2018-06-04T06:10:29.976Z,67.40
2018-06-04T06:12:58.069Z,66.29
2018-06-04T06:15:26.232Z,66.71
2018-06-04T06:17:54.299Z,66.11
2018-06-04T06:20:22.763Z,65.51
2018-06-04T06:22:50.888Z,65.20
2018-06-04T06:25:18.985Z,65.12
2018-06-04T06:27:47.032Z,65.40
2018-06-04T06:30:15.104Z,64.47
2018-06-04T06:32:43.166Z,64.74
2018-06-04T06:35:11.222Z,64.08
2018-06-04T06:37:39.315Z,64.21
2018-06-04T06:40:07.426Z,64.61
2018-06-04T06:42:35.492Z,64.03
2018-06-04T06:45:03.571Z,63.35
2018-06-04T06:47:31.624Z,64.13
2018-06-04T06:49:59.715Z,64.03
2018-06-04T06:52:27.806Z,63.06
2018-06-04T06:54:55.900Z,63.12
2018-06-04T06:57:24.987Z,63.07
2018-06-04T06:59:53.079Z,63.08
2018-06-04T07:02:21.145Z,63.29
2018-06-04T07:04:49.251Z,63.03
2018-06-04T07:07:17.897Z,63.68
2018-06-04T07:09:46.001Z,63.63
2018-06-04T07:12:14.093Z,62.98
2018-06-04T07:14:42.198Z,62.41
2018-06-04T07:17:10.310Z,62.70
2018-06-04T07:19:38.379Z,62.71
2018-06-04T07:22:06.439Z,61.98
2018-06-04T07:24:34.501Z,62.26
2018-06-04T07:27:02.611Z,62.04
2018-06-04T07:29:30.686Z,61.88
2018-06-04T07:31:58.798Z,61.60
2018-06-04T07:34:26.876Z,62.00
2018-06-04T07:36:54.940Z,61.79
2018-06-04T07:39:23.011Z,61.47
2018-06-04T07:41:51.068Z,61.79
2018-06-04T07:44:19.178Z,60.76
2018-06-04T07:46:47.206Z,61.01
2018-06-04T07:49:15.280Z,61.09
2018-06-04T07:51:43.349Z,61.39
2018-06-04T07:54:11.534Z,61.22
2018-06-04T07:56:40.219Z,61.46
2018-06-04T07:59:08.321Z,62.11
2018-06-04T08:01:36.521Z,60.91
2018-06-04T08:04:04.585Z,61.10
2018-06-04T08:06:33.158Z,61.40
2018-06-04T08:09:01.225Z,61.22
2018-06-04T08:11:29.308Z,60.97
2018-06-04T08:13:57.443Z,60.71
2018-06-04T08:16:25.538Z,60.97
2018-06-04T08:18:53.653Z,60.78
2018-06-04T08:21:21.871Z,60.25
2018-06-04T08:23:52.967Z,60.72
2018-06-04T08:26:21.088Z,61.14
2018-06-04T08:28:49.163Z,60.90
2018-06-04T08:31:17.227Z,60.35
2018-06-04T08:33:45.376Z,60.85
2018-06-04T08:36:13.470Z,60.85
2018-06-04T08:38:41.536Z,59.56
2018-06-04T08:41:09.620Z,60.13
2018-06-04T08:43:37.685Z,58.80
2018-06-04T08:46:05.744Z,58.84
2018-06-04T08:48:33.804Z,59.71
2018-06-04T08:51:01.944Z,59.38
2018-06-04T08:53:36.560Z,59.58
2018-06-04T08:56:04.683Z,58.96
2018-06-04T08:58:32.783Z,58.97
2018-06-04T09:01:00.908Z,58.54
2018-06-04T09:03:28.979Z,57.61
2018-06-04T09:05:57.044Z,57.66
2018-06-04T09:08:25.111Z,56.25
2018-06-04T09:10:53.215Z,55.65
2018-06-04T09:13:21.345Z,55.72
2018-06-04T09:15:49.503Z,56.21
2018-06-04T09:18:17.561Z,56.10
2018-06-04T09:20:45.633Z,55.19
2018-06-04T09:23:13.724Z,54.44
2018-06-04T09:25:41.911Z,54.45
2018-06-04T09:28:10.166Z,55.30
2018-06-04T09:30:38.248Z,54.34
2018-06-04T09:33:06.341Z,54.83
2018-06-04T09:35:34.410Z,54.66
2018-06-04T09:38:02.487Z,54.58
2018-06-04T09:40:30.563Z,53.80
2018-06-04T09:42:58.636Z,54.31
2018-06-04T09:45:26.760Z,54.75
2018-06-04T09:47:54.823Z,54.06
2018-06-04T09:50:23.010Z,53.13
2018-06-04T09:52:51.063Z,54.00
2018-06-04T09:55:19.144Z,54.18
2018-06-04T09:57:47.192Z,53.85
2018-06-04T10:00:19.456Z,53.55
2018-06-04T10:02:47.533Z,54.29
2018-06-04T10:05:15.636Z,53.00
2018-06-04T10:07:43.742Z,52.73
2018-06-04T10:10:11.829Z,51.25
2018-06-04T10:12:39.900Z,51.43
2018-06-04T10:15:07.980Z,51.88
2018-06-04T10:17:36.509Z,53.12
2018-06-04T10:20:04.574Z,53.31
2018-06-04T10:22:32.686Z,52.54
2018-06-04T10:25:00.763Z,52.43
2018-06-04T10:27:28.875Z,53.34
2018-06-04T10:29:56.959Z,53.04
2018-06-04T10:32:25.083Z,52.38
2018-06-04T10:34:53.165Z,51.47
2018-06-04T10:37:21.263Z,51.00
2018-06-04T10:39:49.377Z,51.03
2018-06-04T10:42:18.194Z,49.75
2018-06-04T10:44:46.282Z,50.00
2018-06-04T10:47:14.387Z,50.16
2018-06-04T10:49:42.474Z,50.48
2018-06-04T10:52:10.572Z,50.44
2018-06-04T10:54:38.658Z,50.95
2018-06-04T10:57:06.756Z,50.86
2018-06-04T10:59:34.816Z,47.93
2018-06-04T11:02:02.904Z,47.73
2018-06-04T11:04:31.083Z,47.39
2018-06-04T11:06:59.194Z,47.37
2018-06-04T11:09:33.995Z,48.52
2018-06-04T11:12:02.095Z,46.11
2018-06-04T11:14:30.219Z,46.06
2018-06-04T11:16:58.319Z,45.23
2018-06-04T11:19:26.516Z,45.57
2018-06-04T11:21:54.599Z,44.87
2018-06-04T11:24:22.657Z,43.56
2018-06-04T11:26:50.747Z,43.30
2018-06-04T11:29:18.825Z,41.99
2018-06-04T11:31:46.922Z,43.66
2018-06-04T11:34:15.156Z,43.21
2018-06-04T11:36:43.224Z,43.27
2018-06-04T11:39:11.711Z,40.40
2018-06-04T11:41:39.802Z,39.60
2018-06-04T11:44:07.859Z,41.46
2018-06-04T11:46:35.936Z,41.89
2018-06-04T11:49:04.100Z,41.38
2018-06-04T11:51:32.232Z,42.24
2018-06-04T11:54:00.309Z,40.59
2018-06-04T11:56:28.403Z,40.48
2018-06-04T11:58:56.426Z,40.43
2018-06-04T12:01:24.537Z,40.02
2018-06-04T12:03:52.600Z,38.83
2018-06-04T12:06:20.697Z,38.55
2018-06-04T12:08:48.790Z,38.87
2018-06-04T12:11:16.890Z,39.50
2018-06-04T12:13:44.966Z,38.32
2018-06-04T12:16:13.035Z,37.88
2018-06-04T12:18:41.095Z,38.41
2018-06-04T12:21:09.179Z,42.25
2018-06-04T12:23:38.280Z,40.35
2018-06-04T12:26:06.368Z,40.54
2018-06-04T12:28:34.479Z,39.26
2018-06-04T12:31:02.596Z,40.92
2018-06-04T12:33:30.664Z,41.11
2018-06-04T12:35:58.722Z,41.03
2018-06-04T12:38:26.816Z,40.64
2018-06-04T12:40:54.914Z,40.18
2018-06-04T12:43:22.980Z,39.94
2018-06-04T12:45:51.064Z,41.46
2018-06-04T12:48:19.168Z,39.64
2018-06-04T12:50:47.255Z,40.06
2018-06-04T12:53:15.542Z,39.89
2018-06-04T12:55:43.603Z,39.48
2018-06-04T12:58:11.666Z,38.96
2018-06-04T13:00:39.755Z,39.87
2018-06-04T13:03:07.840Z,40.32
2018-06-04T13:05:35.927Z,40.45
2018-06-04T13:08:03.992Z,40.88
2018-06-04T13:10:32.371Z,39.67
2018-06-04T13:13:00.418Z,39.28
2018-06-04T13:15:28.499Z,39.35
2018-06-04T13:17:56.573Z,40.50
2018-06-04T13:20:24.646Z,39.37
2018-06-04T13:22:52.712Z,39.66
2018-06-04T13:25:20.762Z,40.93
2018-06-04T13:27:48.855Z,39.44
2018-06-04T13:30:16.905Z,40.61
2018-06-04T13:32:45.000Z,40.42
2018-06-04T13:35:14.313Z,40.13
2018-06-04T13:37:42.493Z,39.67
2018-06-04T13:40:10.560Z,39.97
2018-06-04T13:42:39.083Z,40.19
2018-06-04T13:45:07.172Z,39.78
2018-06-04T13:47:35.271Z,41.18
2018-06-04T13:50:03.352Z,40.73
2018-06-04T13:52:31.413Z,40.47
2018-06-04T13:54:59.475Z,39.98
2018-06-04T13:57:27.526Z,40.67
2018-06-04T13:59:55.632Z,39.66
2018-06-04T14:02:23.672Z,42.28
2018-06-04T14:04:51.761Z,39.70
2018-06-04T14:07:19.828Z,39.11
2018-06-04T14:09:47.909Z,39.93
2018-06-04T14:12:15.987Z,40.73
2018-06-04T14:14:44.098Z,39.19
2018-06-04T14:17:12.186Z,38.99
2018-06-04T14:19:40.238Z,39.32
2018-06-04T14:22:08.343Z,39.61
2018-06-04T14:24:36.427Z,38.55
2018-06-04T14:27:04.499Z,39.77
2018-06-04T14:29:32.600Z,38.52
2018-06-04T14:32:00.694Z,38.82
2018-06-04T14:34:28.791Z,38.56
2018-06-04T14:36:56.884Z,38.80
2018-06-04T14:39:25.234Z,39.10
2018-06-04T14:41:53.291Z,40.55
2018-06-04T14:44:21.389Z,40.78
2018-06-04T14:46:49.418Z,39.40
2018-06-04T14:49:17.490Z,39.07
2018-06-04T14:51:45.571Z,39.26
2018-06-04T14:54:13.648Z,38.79
2018-06-04T14:56:42.415Z,37.86
2018-06-04T14:59:10.513Z,37.69
2018-06-04T15:01:38.642Z,37.87
2018-06-04T15:04:06.758Z,37.66
2018-06-04T15:06:34.820Z,37.46
2018-06-04T15:09:02.957Z,37.43
2018-06-04T15:11:31.023Z,37.05
2018-06-04T15:13:59.078Z,37.01
2018-06-04T15:16:27.165Z,36.56
2018-06-04T15:18:55.214Z,36.43
2018-06-04T15:21:23.278Z,35.92
2018-06-04T15:23:51.356Z,36.18
2018-06-04T15:26:19.453Z,34.93
2018-06-04T15:28:47.589Z,35.03
2018-06-04T15:31:16.355Z,34.61
2018-06-04T15:33:44.424Z,34.77
2018-06-04T15:36:12.479Z,35.16
2018-06-04T15:38:40.535Z,33.72
2018-06-04T15:41:08.587Z,35.48
2018-06-04T15:43:36.660Z,33.86
2018-06-04T15:46:04.832Z,34.35
2018-06-04T15:48:32.941Z,33.59
2018-06-04T15:51:01.043Z,33.70
2018-06-04T15:53:29.189Z,34.30
2018-06-04T15:55:57.242Z,34.42
2018-06-04T15:58:25.336Z,33.38
2018-06-04T16:00:53.395Z,33.23
2018-06-04T16:03:21.491Z,33.28
2018-06-04T16:05:49.571Z,31.70
2018-06-04T16:08:18.637Z,33.05
2018-06-04T16:10:46.705Z,32.82
2018-06-04T16:13:14.779Z,32.41
2018-06-04T16:15:42.847Z,32.71
2018-06-04T16:18:10.914Z,31.61
2018-06-04T16:20:38.987Z,30.67
2018-06-04T16:23:07.070Z,31.37
2018-06-04T16:25:35.125Z,31.57
2018-06-04T16:28:03.234Z,31.16
2018-06-04T16:30:31.318Z,31.67
2018-06-04T16:32:59.431Z,31.25
2018-06-04T16:35:27.484Z,31.75
2018-06-04T16:38:03.049Z,32.18
2018-06-04T16:40:31.799Z,32.13
2018-06-04T16:43:01.781Z,30.94
2018-06-04T16:45:30.488Z,30.82
2018-06-04T16:47:59.821Z,31.02
2018-06-04T16:50:28.642Z,31.16
2018-06-04T16:52:58.522Z,30.35
2018-06-04T16:55:30.482Z,29.91
2018-06-04T16:58:01.388Z,29.06
2018-06-04T17:00:29.863Z,28.23
2018-06-04T17:02:59.171Z,27.75
2018-06-04T17:05:28.028Z,28.59
2018-06-04T17:08:01.451Z,28.18
2018-06-04T17:10:30.259Z,27.79
2018-06-04T17:13:02.852Z,26.01
2018-06-04T17:15:31.583Z,26.42
2018-06-04T17:17:59.996Z,26.90
2018-06-04T17:20:28.109Z,26.93
2018-06-04T17:22:56.167Z,27.45
2018-06-04T17:25:24.241Z,27.97
2018-06-04T17:27:52.316Z,28.18
2018-06-04T17:30:20.391Z,27.31
2018-06-04T17:32:48.466Z,27.87
2018-06-04T17:35:16.516Z,28.36
2018-06-04T17:37:44.609Z,27.73
2018-06-04T17:40:12.666Z,28.93
2018-06-04T17:42:40.725Z,29.57
2018-06-04T17:45:08.784Z,30.50
2018-06-04T17:47:36.858Z,31.86
2018-06-04T17:50:04.913Z,32.02
2018-06-04T17:52:32.984Z,34.01
2018-06-04T17:55:01.117Z,34.62
2018-06-04T17:57:29.579Z,35.05
2018-06-04T17:59:57.683Z,36.63
2018-06-04T18:02:25.824Z,36.56
2018-06-04T18:04:54.261Z,36.90
2018-06-04T18:07:22.643Z,37.21
2018-06-04T18:09:50.728Z,38.43
2018-06-04T18:12:18.799Z,37.95
2018-06-04T18:14:46.852Z,38.50
2018-06-04T18:17:14.941Z,39.55
2018-06-04T18:19:43.528Z,40.12
2018-06-04T18:22:11.663Z,40.49
2018-06-04T18:24:39.742Z,41.02
2018-06-04T18:27:07.835Z,41.92
2018-06-04T18:29:35.956Z,42.50
2018-06-04T18:32:04.124Z,42.60
2018-06-04T18:34:32.178Z,43.58
2018-06-04T18:37:00.300Z,43.45
2018-06-04T18:39:29.248Z,44.30
2018-06-04T18:41:57.356Z,45.21
2018-06-04T18:44:25.447Z,44.80
2018-06-04T18:46:53.543Z,44.92
2018-06-04T18:49:21.615Z,45.19
2018-06-04T18:51:49.713Z,45.47
2018-06-04T18:54:17.775Z,46.44
2018-06-04T18:56:45.834Z,46.10
2018-06-04T18:59:13.915Z,45.37
2018-06-04T19:01:42.308Z,45.62
2018-06-04T19:04:16.791Z,46.65
2018-06-04T19:06:44.904Z,46.98
2018-06-04T19:09:13.582Z,46.08
2018-06-04T19:11:41.600Z,47.41
2018-06-04T19:14:09.691Z,47.55
2018-06-04T19:16:37.777Z,47.34
2018-06-04T19:19:05.854Z,47.99
2018-06-04T19:21:33.960Z,48.35
2018-06-04T19:24:02.044Z,47.73
2018-06-04T19:26:30.191Z,48.02
2018-06-04T19:28:58.522Z,48.34
2018-06-04T19:31:26.628Z,48.70
2018-06-04T19:33:54.742Z,49.02
2018-06-04T19:36:22.812Z,48.35
2018-06-04T19:38:50.915Z,49.61
2018-06-04T19:41:18.990Z,49.42
2018-06-04T19:43:47.078Z,49.76
2018-06-04T19:46:15.135Z,50.01
2018-06-04T19:48:43.194Z,49.87
2018-06-04T19:51:11.279Z,50.38
2018-06-04T19:53:39.375Z,50.92
2018-06-04T19:56:08.418Z,51.01
2018-06-04T19:58:36.626Z,50.67
2018-06-04T20:01:04.735Z,51.06
2018-06-04T20:03:33.070Z,51.36
2018-06-04T20:06:03.489Z,51.60
2018-06-04T20:08:31.672Z,51.55
2018-06-04T20:11:30.064Z,51.11
2018-06-04T20:13:58.200Z,51.17
2018-06-04T20:16:26.412Z,51.26
2018-06-04T20:18:55.486Z,51.57
2018-06-04T20:21:23.825Z,51.48
2018-06-04T20:23:54.240Z,51.69
2018-06-04T20:26:28.095Z,51.74
2018-06-04T20:29:03.603Z,51.94
2018-06-04T20:32:06.925Z,51.81
2018-06-04T20:34:35.037Z,51.83
2018-06-04T20:37:03.220Z,51.91
2018-06-04T20:39:31.359Z,52.35
2018-06-04T20:41:59.569Z,52.41
2018-06-04T20:44:28.677Z,52.80
2018-06-04T20:46:56.875Z,53.20
2018-06-04T20:49:25.337Z,53.39
2018-06-04T20:51:53.547Z,53.97
2018-06-04T20:54:22.403Z,54.11
2018-06-04T20:56:50.784Z,54.14
2018-06-04T20:59:19.058Z,54.68
2018-06-04T21:01:47.166Z,54.93
2018-06-04T21:04:15.410Z,55.10
2018-06-04T21:06:43.559Z,55.57
2018-06-04T21:09:11.709Z,55.82
2018-06-04T21:11:39.839Z,56.30
2018-06-04T21:14:07.937Z,56.25
2018-06-04T21:16:36.149Z,56.69
2018-06-04T21:19:04.310Z,57.08
2018-06-04T21:21:32.573Z,56.99
2018-06-04T21:24:00.693Z,57.24
2018-06-04T21:26:28.851Z,56.73
2018-06-04T21:28:56.985Z,57.38
2018-06-04T21:31:25.210Z,57.23
2018-06-04T21:36:44.325Z,58.00
2018-06-04T21:39:12.552Z,58.34
2018-06-04T21:41:41.838Z,58.95
2018-06-04T21:44:21.280Z,59.52
2018-06-04T21:46:50.293Z,59.40
2018-06-04T21:49:20.054Z,60.02
2018-06-04T21:51:48.906Z,59.97
2018-06-04T21:54:17.728Z,60.20
2018-06-04T21:56:46.238Z,60.17
2018-06-04T21:59:14.557Z,60.63
2018-06-04T22:01:42.638Z,60.96
2018-06-04T22:04:10.757Z,60.72
2018-06-04T22:06:38.944Z,60.92
2018-06-04T22:09:08.248Z,61.48
2018-06-04T22:11:36.471Z,61.72
2018-06-04T22:14:05.520Z,61.80
2018-06-04T22:16:34.403Z,62.09
2018-06-04T22:19:02.539Z,62.57
2018-06-04T22:21:31.465Z,62.83
2018-06-04T22:24:02.620Z,62.78
2018-06-04T22:26:30.744Z,63.14
2018-06-04T22:28:59.047Z,63.05
2018-06-04T22:31:27.204Z,63.00
2018-06-04T22:34:02.679Z,63.30
2018-06-04T22:36:35.632Z,63.37
2018-06-04T22:39:04.445Z,63.69
2018-06-04T22:41:32.571Z,63.68
2018-06-04T22:44:00.635Z,63.68
2018-06-04T22:46:28.709Z,64.27
2018-06-04T22:48:56.755Z,64.26
2018-06-04T22:51:24.823Z,64.61
2018-06-04T22:53:52.944Z,64.85
2018-06-04T22:56:21.004Z,65.14
2018-06-04T22:58:49.064Z,65.44
2018-06-04T23:01:17.163Z,65.32
2018-06-04T23:03:45.224Z,65.31
2018-06-04T23:06:13.297Z,65.34
2018-06-04T23:08:41.355Z,65.35
2018-06-04T23:11:09.423Z,65.68
2018-06-04T23:13:37.501Z,65.96
2018-06-04T23:16:05.596Z,66.19
2018-06-04T23:18:33.864Z,66.63
2018-06-04T23:21:02.074Z,66.45
2018-06-04T23:23:30.122Z,66.54
2018-06-04T23:25:58.174Z,66.55
2018-06-04T23:28:26.231Z,66.64
2018-06-04T23:30:54.300Z,66.70
2018-06-04T23:33:22.360Z,66.70
2018-06-04T23:35:50.431Z,66.87
2018-06-04T23:38:18.499Z,67.02
2018-06-04T23:40:46.576Z,67.18
2018-06-04T23:43:14.643Z,66.83
2018-06-04T23:45:42.796Z,67.39
2018-06-04T23:48:10.898Z,67.51
2018-06-04T23:50:38.948Z,67.16
2018-06-04T23:53:07.022Z,67.75
2018-06-04T23:55:35.078Z,67.32
2018-06-04T23:58:03.138Z,68.01
